sensor_id;sensor_type;location;lat;lon;timestamp;P1;durP1;ratioP1;P2;durP2;ratioP2
31384;SDS011;18016;49.788;8.742;2023-04-25T00:02:23;6.90;;;5.23;;
31384;SDS011;18016;49.788;8.742;2023-04-25T00:04:49;6.32;;;4.97;;
31384;SDS011;18016;49.788;8.742;2023-04-25T00:07:14;6.90;;;5.67;;
31384;SDS011;18016;49.788;8.742;2023-04-25T00:09:40;7.67;;;5.70;;
31384;SDS011;18016;49.788;8.742;2023-04-25T00:12:05;7.68;;;5.13;;
31384;SDS011;18016;49.788;8.742;2023-04-25T00:14:30;6.20;;;5.28;;
31384;SDS011;18016;49.788;8.742;2023-04-25T00:16:59;7.43;;;5.40;;
31384;SDS011;18016;49.788;8.742;2023-04-25T00:19:24;6.93;;;4.95;;
31384;SDS011;18016;49.788;8.742;2023-04-25T00:21:51;8.77;;;6.10;;
31384;SDS011;18016;49.788;8.742;2023-04-25T00:24:17;7.65;;;6.15;;
31384;SDS011;18016;49.788;8.742;2023-04-25T00:26:42;10.20;;;6.30;;
31384;SDS011;18016;49.788;8.742;2023-04-25T00:29:07;9.63;;;6.63;;
31384;SDS011;18016;49.788;8.742;2023-04-25T00:31:32;9.57;;;6.97;;
31384;SDS011;18016;49.788;8.742;2023-04-25T00:33:57;8.90;;;6.90;;
31384;SDS011;18016;49.788;8.742;2023-04-25T00:36:23;10.10;;;7.13;;
31384;SDS011;18016;49.788;8.742;2023-04-25T00:38:48;10.73;;;7.00;;
31384;SDS011;18016;49.788;8.742;2023-04-25T00:41:13;15.73;;;7.45;;
31384;SDS011;18016;49.788;8.742;2023-04-25T00:43:39;10.70;;;6.43;;
31384;SDS011;18016;49.788;8.742;2023-04-25T00:46:05;9.00;;;6.60;;
31384;SDS011;18016;49.788;8.742;2023-04-25T00:48:30;8.48;;;6.57;;
31384;SDS011;18016;49.788;8.742;2023-04-25T00:50:57;12.70;;;7.03;;
31384;SDS011;18016;49.788;8.742;2023-04-25T00:53:23;8.75;;;6.78;;
31384;SDS011;18016;49.788;8.742;2023-04-25T00:55:49;7.93;;;6.35;;
31384;SDS011;18016;49.788;8.742;2023-04-25T00:58:16;9.10;;;6.32;;
31384;SDS011;18016;49.788;8.742;2023-04-25T01:00:41;8.43;;;6.68;;
31384;SDS011;18016;49.788;8.742;2023-04-25T01:03:06;9.73;;;6.63;;
31384;SDS011;18016;49.788;8.742;2023-04-25T01:05:32;10.65;;;6.50;;
31384;SDS011;18016;49.788;8.742;2023-04-25T01:07:57;10.27;;;6.33;;
31384;SDS011;18016;49.788;8.742;2023-04-25T01:10:23;7.05;;;5.57;;
31384;SDS011;18016;49.788;8.742;2023-04-25T01:12:48;8.20;;;4.97;;
31384;SDS011;18016;49.788;8.742;2023-04-25T01:15:14;9.60;;;5.38;;
31384;SDS011;18016;49.788;8.742;2023-04-25T01:17:39;5.53;;;4.93;;
31384;SDS011;18016;49.788;8.742;2023-04-25T01:20:06;9.13;;;6.10;;
31384;SDS011;18016;49.788;8.742;2023-04-25T01:22:32;11.15;;;6.20;;
31384;SDS011;18016;49.788;8.742;2023-04-25T01:24:57;11.93;;;5.38;;
31384;SDS011;18016;49.788;8.742;2023-04-25T01:27:23;6.18;;;5.05;;
31384;SDS011;18016;49.788;8.742;2023-04-25T01:29:48;6.20;;;4.93;;
31384;SDS011;18016;49.788;8.742;2023-04-25T01:32:13;6.47;;;4.97;;
31384;SDS011;18016;49.788;8.742;2023-04-25T01:34:39;6.60;;;4.32;;
31384;SDS011;18016;49.788;8.742;2023-04-25T01:37:04;6.47;;;4.63;;
31384;SDS011;18016;49.788;8.742;2023-04-25T01:39:29;4.97;;;3.80;;
31384;SDS011;18016;49.788;8.742;2023-04-25T01:41:54;6.87;;;4.73;;
31384;SDS011;18016;49.788;8.742;2023-04-25T01:44:20;5.03;;;4.53;;
31384;SDS011;18016;49.788;8.742;2023-04-25T01:46:45;6.30;;;3.60;;
31384;SDS011;18016;49.788;8.742;2023-04-25T01:49:10;4.47;;;3.87;;
31384;SDS011;18016;49.788;8.742;2023-04-25T01:51:35;8.67;;;4.13;;
31384;SDS011;18016;49.788;8.742;2023-04-25T01:54:01;4.88;;;3.95;;
31384;SDS011;18016;49.788;8.742;2023-04-25T01:56:29;5.72;;;3.85;;
31384;SDS011;18016;49.788;8.742;2023-04-25T01:58:55;5.13;;;3.65;;
31384;SDS011;18016;49.788;8.742;2023-04-25T02:01:20;4.80;;;3.80;;
31384;SDS011;18016;49.788;8.742;2023-04-25T02:03:45;5.77;;;4.37;;
31384;SDS011;18016;49.788;8.742;2023-04-25T02:06:10;5.13;;;3.93;;
31384;SDS011;18016;49.788;8.742;2023-04-25T02:08:35;4.70;;;3.50;;
31384;SDS011;18016;49.788;8.742;2023-04-25T02:11:02;5.15;;;3.90;;
31384;SDS011;18016;49.788;8.742;2023-04-25T02:13:28;4.72;;;3.50;;
31384;SDS011;18016;49.788;8.742;2023-04-25T02:15:53;4.67;;;3.67;;
31384;SDS011;18016;49.788;8.742;2023-04-25T02:18:18;6.10;;;3.40;;
31384;SDS011;18016;49.788;8.742;2023-04-25T02:20:44;4.50;;;3.58;;
31384;SDS011;18016;49.788;8.742;2023-04-25T02:23:10;4.50;;;3.25;;
31384;SDS011;18016;49.788;8.742;2023-04-25T02:25:35;3.83;;;3.20;;
31384;SDS011;18016;49.788;8.742;2023-04-25T02:28:00;5.32;;;3.78;;
31384;SDS011;18016;49.788;8.742;2023-04-25T02:30:25;4.65;;;3.20;;
31384;SDS011;18016;49.788;8.742;2023-04-25T02:32:51;4.60;;;3.33;;
31384;SDS011;18016;49.788;8.742;2023-04-25T02:35:16;4.15;;;3.30;;
31384;SDS011;18016;49.788;8.742;2023-04-25T02:37:41;5.03;;;3.45;;
31384;SDS011;18016;49.788;8.742;2023-04-25T02:40:07;4.22;;;3.28;;
31384;SDS011;18016;49.788;8.742;2023-04-25T02:42:33;3.92;;;2.80;;
31384;SDS011;18016;49.788;8.742;2023-04-25T02:44:58;3.55;;;2.92;;
31384;SDS011;18016;49.788;8.742;2023-04-25T02:47:23;4.80;;;3.35;;
31384;SDS011;18016;49.788;8.742;2023-04-25T02:49:49;4.25;;;3.20;;
31384;SDS011;18016;49.788;8.742;2023-04-25T02:52:14;3.13;;;2.42;;
31384;SDS011;18016;49.788;8.742;2023-04-25T02:54:39;4.32;;;3.17;;
31384;SDS011;18016;49.788;8.742;2023-04-25T02:57:05;4.03;;;3.10;;
31384;SDS011;18016;49.788;8.742;2023-04-25T02:59:30;3.67;;;2.85;;
31384;SDS011;18016;49.788;8.742;2023-04-25T03:01:55;4.37;;;2.97;;
31384;SDS011;18016;49.788;8.742;2023-04-25T03:04:21;3.65;;;3.15;;
31384;SDS011;18016;49.788;8.742;2023-04-25T03:06:48;3.42;;;2.80;;
31384;SDS011;18016;49.788;8.742;2023-04-25T03:09:13;3.85;;;2.83;;
31384;SDS011;18016;49.788;8.742;2023-04-25T03:11:39;4.63;;;3.20;;
31384;SDS011;18016;49.788;8.742;2023-04-25T03:14:04;5.15;;;3.55;;
31384;SDS011;18016;49.788;8.742;2023-04-25T03:16:30;4.25;;;2.83;;
31384;SDS011;18016;49.788;8.742;2023-04-25T03:18:55;5.07;;;3.50;;
31384;SDS011;18016;49.788;8.742;2023-04-25T03:21:21;3.30;;;2.88;;
31384;SDS011;18016;49.788;8.742;2023-04-25T03:23:46;3.72;;;3.00;;
31384;SDS011;18016;49.788;8.742;2023-04-25T03:26:11;5.45;;;3.83;;
31384;SDS011;18016;49.788;8.742;2023-04-25T03:28:36;4.27;;;3.23;;
31384;SDS011;18016;49.788;8.742;2023-04-25T03:31:01;4.27;;;3.50;;
31384;SDS011;18016;49.788;8.742;2023-04-25T03:33:27;3.75;;;2.97;;
31384;SDS011;18016;49.788;8.742;2023-04-25T03:35:52;3.77;;;2.90;;
31384;SDS011;18016;49.788;8.742;2023-04-25T03:38:17;6.32;;;3.85;;
31384;SDS011;18016;49.788;8.742;2023-04-25T03:40:43;5.10;;;3.30;;
31384;SDS011;18016;49.788;8.742;2023-04-25T03:43:08;5.43;;;3.78;;
31384;SDS011;18016;49.788;8.742;2023-04-25T03:45:33;4.93;;;3.45;;
31384;SDS011;18016;49.788;8.742;2023-04-25T03:47:58;4.28;;;3.47;;
31384;SDS011;18016;49.788;8.742;2023-04-25T03:50:24;4.15;;;3.17;;
31384;SDS011;18016;49.788;8.742;2023-04-25T03:52:49;5.40;;;3.58;;
31384;SDS011;18016;49.788;8.742;2023-04-25T03:55:15;5.13;;;3.88;;
31384;SDS011;18016;49.788;8.742;2023-04-25T03:57:40;5.53;;;3.65;;
31384;SDS011;18016;49.788;8.742;2023-04-25T04:00:05;5.43;;;4.03;;
31384;SDS011;18016;49.788;8.742;2023-04-25T04:02:31;5.68;;;4.05;;
31384;SDS011;18016;49.788;8.742;2023-04-25T04:04:58;5.05;;;3.67;;
31384;SDS011;18016;49.788;8.742;2023-04-25T04:07:23;4.47;;;3.55;;
31384;SDS011;18016;49.788;8.742;2023-04-25T04:09:48;5.60;;;4.13;;
31384;SDS011;18016;49.788;8.742;2023-04-25T04:12:13;6.25;;;4.20;;
31384;SDS011;18016;49.788;8.742;2023-04-25T04:14:39;5.80;;;3.85;;
31384;SDS011;18016;49.788;8.742;2023-04-25T04:17:05;5.75;;;4.20;;
31384;SDS011;18016;49.788;8.742;2023-04-25T04:19:31;4.90;;;3.35;;
31384;SDS011;18016;49.788;8.742;2023-04-25T04:21:56;5.38;;;3.85;;
31384;SDS011;18016;49.788;8.742;2023-04-25T04:24:21;5.38;;;3.65;;
31384;SDS011;18016;49.788;8.742;2023-04-25T04:26:46;6.60;;;3.88;;
31384;SDS011;18016;49.788;8.742;2023-04-25T04:29:11;5.57;;;3.05;;
31384;SDS011;18016;49.788;8.742;2023-04-25T04:31:45;5.03;;;3.60;;
31384;SDS011;18016;49.788;8.742;2023-04-25T04:34:10;4.93;;;3.50;;
31384;SDS011;18016;49.788;8.742;2023-04-25T04:36:35;4.23;;;3.37;;
31384;SDS011;18016;49.788;8.742;2023-04-25T04:39:01;5.22;;;4.07;;
31384;SDS011;18016;49.788;8.742;2023-04-25T04:41:27;5.63;;;3.92;;
31384;SDS011;18016;49.788;8.742;2023-04-25T04:43:52;5.28;;;3.47;;
31384;SDS011;18016;49.788;8.742;2023-04-25T04:46:18;5.50;;;3.25;;
31384;SDS011;18016;49.788;8.742;2023-04-25T04:48:43;3.78;;;3.05;;
31384;SDS011;18016;49.788;8.742;2023-04-25T04:51:09;5.65;;;3.90;;
31384;SDS011;18016;49.788;8.742;2023-04-25T04:53:34;4.60;;;3.63;;
31384;SDS011;18016;49.788;8.742;2023-04-25T04:55:59;5.20;;;3.60;;
31384;SDS011;18016;49.788;8.742;2023-04-25T04:58:25;4.83;;;3.27;;
31384;SDS011;18016;49.788;8.742;2023-04-25T05:00:50;5.33;;;3.23;;
31384;SDS011;18016;49.788;8.742;2023-04-25T05:03:15;4.90;;;3.40;;
31384;SDS011;18016;49.788;8.742;2023-04-25T05:05:41;6.78;;;4.10;;
31384;SDS011;18016;49.788;8.742;2023-04-25T05:08:06;5.05;;;3.70;;
31384;SDS011;18016;49.788;8.742;2023-04-25T05:10:31;5.67;;;3.73;;
31384;SDS011;18016;49.788;8.742;2023-04-25T05:12:56;5.57;;;3.53;;
31384;SDS011;18016;49.788;8.742;2023-04-25T05:15:22;4.70;;;3.53;;
31384;SDS011;18016;49.788;8.742;2023-04-25T05:17:47;6.03;;;3.70;;
31384;SDS011;18016;49.788;8.742;2023-04-25T05:20:12;5.20;;;3.50;;
31384;SDS011;18016;49.788;8.742;2023-04-25T05:22:38;4.85;;;3.60;;
31384;SDS011;18016;49.788;8.742;2023-04-25T05:25:04;7.53;;;4.43;;
31384;SDS011;18016;49.788;8.742;2023-04-25T05:27:29;48.50;;;13.45;;
31384;SDS011;18016;49.788;8.742;2023-04-25T05:29:54;28.47;;;9.57;;
31384;SDS011;18016;49.788;8.742;2023-04-25T05:32:20;7.28;;;5.07;;
31384;SDS011;18016;49.788;8.742;2023-04-25T05:34:45;7.10;;;4.40;;
31384;SDS011;18016;49.788;8.742;2023-04-25T05:37:10;6.63;;;4.32;;
31384;SDS011;18016;49.788;8.742;2023-04-25T05:39:35;6.30;;;4.27;;
31384;SDS011;18016;49.788;8.742;2023-04-25T05:42:00;5.97;;;4.13;;
31384;SDS011;18016;49.788;8.742;2023-04-25T05:44:26;5.57;;;4.05;;
31384;SDS011;18016;49.788;8.742;2023-04-25T05:46:51;5.25;;;4.18;;
31384;SDS011;18016;49.788;8.742;2023-04-25T05:49:16;6.37;;;4.13;;
31384;SDS011;18016;49.788;8.742;2023-04-25T05:51:41;8.33;;;4.30;;
31384;SDS011;18016;49.788;8.742;2023-04-25T05:54:07;6.33;;;3.60;;
31384;SDS011;18016;49.788;8.742;2023-04-25T05:56:32;8.13;;;3.67;;
31384;SDS011;18016;49.788;8.742;2023-04-25T05:58:57;5.97;;;3.80;;
31384;SDS011;18016;49.788;8.742;2023-04-25T06:01:23;6.75;;;3.67;;
31384;SDS011;18016;49.788;8.742;2023-04-25T06:03:48;8.07;;;3.75;;
31384;SDS011;18016;49.788;8.742;2023-04-25T06:06:13;7.15;;;4.40;;
31384;SDS011;18016;49.788;8.742;2023-04-25T06:08:39;8.70;;;4.00;;
31384;SDS011;18016;49.788;8.742;2023-04-25T06:11:05;6.00;;;3.80;;
31384;SDS011;18016;49.788;8.742;2023-04-25T06:13:30;8.30;;;3.92;;
31384;SDS011;18016;49.788;8.742;2023-04-25T06:15:55;7.33;;;4.33;;
31384;SDS011;18016;49.788;8.742;2023-04-25T06:18:20;8.68;;;4.07;;
31384;SDS011;18016;49.788;8.742;2023-04-25T06:20:46;5.60;;;3.33;;
31384;SDS011;18016;49.788;8.742;2023-04-25T06:23:11;6.55;;;4.18;;
31384;SDS011;18016;49.788;8.742;2023-04-25T06:25:36;7.15;;;3.97;;
31384;SDS011;18016;49.788;8.742;2023-04-25T06:28:01;8.55;;;3.75;;
31384;SDS011;18016;49.788;8.742;2023-04-25T06:30:27;5.70;;;3.78;;
31384;SDS011;18016;49.788;8.742;2023-04-25T06:32:52;6.72;;;3.40;;
31384;SDS011;18016;49.788;8.742;2023-04-25T06:35:20;4.85;;;3.10;;
31384;SDS011;18016;49.788;8.742;2023-04-25T06:37:46;4.00;;;3.42;;
31384;SDS011;18016;49.788;8.742;2023-04-25T06:40:11;5.40;;;3.28;;
31384;SDS011;18016;49.788;8.742;2023-04-25T06:42:36;6.57;;;3.35;;
31384;SDS011;18016;49.788;8.742;2023-04-25T06:45:01;6.30;;;3.30;;
31384;SDS011;18016;49.788;8.742;2023-04-25T06:47:27;6.68;;;3.03;;
31384;SDS011;18016;49.788;8.742;2023-04-25T06:49:52;4.18;;;3.17;;
31384;SDS011;18016;49.788;8.742;2023-04-25T06:52:17;5.40;;;3.22;;
31384;SDS011;18016;49.788;8.742;2023-04-25T06:54:43;5.82;;;3.10;;
31384;SDS011;18016;49.788;8.742;2023-04-25T06:57:08;5.40;;;2.92;;
31384;SDS011;18016;49.788;8.742;2023-04-25T06:59:33;4.10;;;3.22;;
31384;SDS011;18016;49.788;8.742;2023-04-25T07:01:58;4.72;;;2.85;;
31384;SDS011;18016;49.788;8.742;2023-04-25T07:04:23;5.47;;;2.70;;
31384;SDS011;18016;49.788;8.742;2023-04-25T07:06:49;4.00;;;2.60;;
31384;SDS011;18016;49.788;8.742;2023-04-25T07:09:14;5.50;;;2.85;;
31384;SDS011;18016;49.788;8.742;2023-04-25T07:11:39;5.15;;;2.60;;
31384;SDS011;18016;49.788;8.742;2023-04-25T07:14:05;3.17;;;2.40;;
31384;SDS011;18016;49.788;8.742;2023-04-25T07:16:30;5.23;;;3.00;;
31384;SDS011;18016;49.788;8.742;2023-04-25T07:18:55;3.05;;;2.33;;
31384;SDS011;18016;49.788;8.742;2023-04-25T07:21:20;7.90;;;3.30;;
31384;SDS011;18016;49.788;8.742;2023-04-25T07:23:45;4.60;;;2.70;;
31384;SDS011;18016;49.788;8.742;2023-04-25T07:26:11;4.15;;;2.83;;
31384;SDS011;18016;49.788;8.742;2023-04-25T07:28:36;4.45;;;3.22;;
31384;SDS011;18016;49.788;8.742;2023-04-25T07:31:01;7.20;;;3.00;;
31384;SDS011;18016;49.788;8.742;2023-04-25T07:33:27;4.32;;;2.78;;
31384;SDS011;18016;49.788;8.742;2023-04-25T07:35:52;4.57;;;2.93;;
31384;SDS011;18016;49.788;8.742;2023-04-25T07:38:18;4.82;;;3.08;;
31384;SDS011;18016;49.788;8.742;2023-04-25T07:40:43;5.73;;;2.47;;
31384;SDS011;18016;49.788;8.742;2023-04-25T07:43:08;4.63;;;2.70;;
31384;SDS011;18016;49.788;8.742;2023-04-25T07:45:33;3.57;;;2.40;;
31384;SDS011;18016;49.788;8.742;2023-04-25T07:47:58;2.88;;;2.08;;
31384;SDS011;18016;49.788;8.742;2023-04-25T07:50:24;2.87;;;2.17;;
31384;SDS011;18016;49.788;8.742;2023-04-25T07:52:49;5.07;;;2.47;;
31384;SDS011;18016;49.788;8.742;2023-04-25T07:55:14;4.20;;;2.50;;
31384;SDS011;18016;49.788;8.742;2023-04-25T07:57:39;4.00;;;2.33;;
31384;SDS011;18016;49.788;8.742;2023-04-25T08:00:05;5.65;;;2.50;;
31384;SDS011;18016;49.788;8.742;2023-04-25T08:02:34;3.15;;;2.25;;
31384;SDS011;18016;49.788;8.742;2023-04-25T08:04:59;2.77;;;1.97;;
31384;SDS011;18016;49.788;8.742;2023-04-25T08:07:24;4.93;;;2.58;;
31384;SDS011;18016;49.788;8.742;2023-04-25T08:09:50;3.35;;;2.33;;
31384;SDS011;18016;49.788;8.742;2023-04-25T08:12:15;2.60;;;1.90;;
31384;SDS011;18016;49.788;8.742;2023-04-25T08:14:40;2.87;;;2.27;;
31384;SDS011;18016;49.788;8.742;2023-04-25T08:17:05;3.87;;;2.10;;
31384;SDS011;18016;49.788;8.742;2023-04-25T08:19:30;4.22;;;2.20;;
31384;SDS011;18016;49.788;8.742;2023-04-25T08:21:56;2.70;;;2.13;;
31384;SDS011;18016;49.788;8.742;2023-04-25T08:24:21;4.40;;;2.33;;
31384;SDS011;18016;49.788;8.742;2023-04-25T08:26:47;3.33;;;2.28;;
31384;SDS011;18016;49.788;8.742;2023-04-25T08:29:12;3.10;;;1.83;;
31384;SDS011;18016;49.788;8.742;2023-04-25T08:31:37;3.40;;;2.17;;
31384;SDS011;18016;49.788;8.742;2023-04-25T08:34:02;4.07;;;2.55;;
31384;SDS011;18016;49.788;8.742;2023-04-25T08:36:27;8.50;;;4.53;;
31384;SDS011;18016;49.788;8.742;2023-04-25T08:38:53;5.03;;;2.70;;
31384;SDS011;18016;49.788;8.742;2023-04-25T08:41:18;4.20;;;2.60;;
31384;SDS011;18016;49.788;8.742;2023-04-25T08:43:45;4.57;;;2.67;;
31384;SDS011;18016;49.788;8.742;2023-04-25T08:46:13;5.18;;;3.97;;
31384;SDS011;18016;49.788;8.742;2023-04-25T08:48:42;6.82;;;4.65;;
31384;SDS011;18016;49.788;8.742;2023-04-25T08:51:07;4.30;;;2.45;;
31384;SDS011;18016;49.788;8.742;2023-04-25T08:53:33;2.40;;;2.20;;
31384;SDS011;18016;49.788;8.742;2023-04-25T08:55:59;3.97;;;2.08;;
31384;SDS011;18016;49.788;8.742;2023-04-25T08:58:26;4.40;;;2.28;;
31384;SDS011;18016;49.788;8.742;2023-04-25T09:00:52;4.68;;;2.08;;
31384;SDS011;18016;49.788;8.742;2023-04-25T09:03:17;2.70;;;1.40;;
31384;SDS011;18016;49.788;8.742;2023-04-25T09:05:43;1.70;;;1.30;;
31384;SDS011;18016;49.788;8.742;2023-04-25T09:08:08;2.05;;;1.50;;
31384;SDS011;18016;49.788;8.742;2023-04-25T09:10:33;2.60;;;1.90;;
31384;SDS011;18016;49.788;8.742;2023-04-25T09:13:02;3.60;;;1.60;;
31384;SDS011;18016;49.788;8.742;2023-04-25T09:15:29;1.92;;;1.67;;
31384;SDS011;18016;49.788;8.742;2023-04-25T09:17:55;3.78;;;1.92;;
31384;SDS011;18016;49.788;8.742;2023-04-25T09:20:20;4.75;;;2.00;;
31384;SDS011;18016;49.788;8.742;2023-04-25T09:22:45;1.90;;;1.60;;
31384;SDS011;18016;49.788;8.742;2023-04-25T09:25:11;3.20;;;1.75;;
31384;SDS011;18016;49.788;8.742;2023-04-25T09:27:37;2.70;;;1.70;;
31384;SDS011;18016;49.788;8.742;2023-04-25T09:30:14;2.63;;;1.70;;
31384;SDS011;18016;49.788;8.742;2023-04-25T09:32:40;1.55;;;1.45;;
31384;SDS011;18016;49.788;8.742;2023-04-25T09:35:07;3.65;;;1.83;;
31384;SDS011;18016;49.788;8.742;2023-04-25T09:37:33;2.42;;;1.58;;
31384;SDS011;18016;49.788;8.742;2023-04-25T09:39:59;1.63;;;1.42;;
31384;SDS011;18016;49.788;8.742;2023-04-25T09:42:25;2.60;;;1.90;;
31384;SDS011;18016;49.788;8.742;2023-04-25T09:44:55;2.35;;;1.67;;
31384;SDS011;18016;49.788;8.742;2023-04-25T09:47:20;5.30;;;2.20;;
31384;SDS011;18016;49.788;8.742;2023-04-25T09:49:47;3.42;;;2.17;;
31384;SDS011;18016;49.788;8.742;2023-04-25T09:52:13;4.05;;;1.80;;
31384;SDS011;18016;49.788;8.742;2023-04-25T09:54:39;1.80;;;1.48;;
31384;SDS011;18016;49.788;8.742;2023-04-25T09:57:09;1.60;;;1.50;;
31384;SDS011;18016;49.788;8.742;2023-04-25T09:59:36;2.15;;;1.52;;
31384;SDS011;18016;49.788;8.742;2023-04-25T10:02:03;1.98;;;1.30;;
31384;SDS011;18016;49.788;8.742;2023-04-25T10:04:28;3.20;;;1.65;;
31384;SDS011;18016;49.788;8.742;2023-04-25T10:06:55;3.00;;;1.58;;
31384;SDS011;18016;49.788;8.742;2023-04-25T10:09:21;1.80;;;1.70;;
31384;SDS011;18016;49.788;8.742;2023-04-25T10:11:49;2.05;;;1.45;;
31384;SDS011;18016;49.788;8.742;2023-04-25T10:14:15;1.40;;;1.30;;
31384;SDS011;18016;49.788;8.742;2023-04-25T10:16:41;1.83;;;1.23;;
31384;SDS011;18016;49.788;8.742;2023-04-25T10:19:07;1.90;;;1.48;;
31384;SDS011;18016;49.788;8.742;2023-04-25T10:21:32;2.33;;;1.65;;
31384;SDS011;18016;49.788;8.742;2023-04-25T10:23:59;1.92;;;1.42;;
31384;SDS011;18016;49.788;8.742;2023-04-25T10:26:24;1.83;;;1.50;;
31384;SDS011;18016;49.788;8.742;2023-04-25T10:31:22;1.58;;;1.23;;
31384;SDS011;18016;49.788;8.742;2023-04-25T10:33:47;1.83;;;1.20;;
31384;SDS011;18016;49.788;8.742;2023-04-25T10:36:14;1.40;;;1.30;;
31384;SDS011;18016;49.788;8.742;2023-04-25T10:38:40;1.40;;;1.23;;
31384;SDS011;18016;49.788;8.742;2023-04-25T10:41:07;1.83;;;1.30;;
31384;SDS011;18016;49.788;8.742;2023-04-25T10:46:01;1.73;;;1.30;;
31384;SDS011;18016;49.788;8.742;2023-04-25T10:48:26;1.33;;;1.15;;
31384;SDS011;18016;49.788;8.742;2023-04-25T10:51:07;1.50;;;1.30;;
31384;SDS011;18016;49.788;8.742;2023-04-25T10:53:33;2.50;;;1.45;;
31384;SDS011;18016;49.788;8.742;2023-04-25T10:55:58;2.83;;;1.90;;
31384;SDS011;18016;49.788;8.742;2023-04-25T10:58:24;1.70;;;1.47;;
31384;SDS011;18016;49.788;8.742;2023-04-25T11:00:49;3.03;;;1.40;;
31384;SDS011;18016;49.788;8.742;2023-04-25T11:03:16;3.78;;;2.10;;
31384;SDS011;18016;49.788;8.742;2023-04-25T11:05:41;2.85;;;1.88;;
31384;SDS011;18016;49.788;8.742;2023-04-25T11:08:11;3.03;;;2.72;;
31384;SDS011;18016;49.788;8.742;2023-04-25T11:10:36;2.97;;;2.33;;
31384;SDS011;18016;49.788;8.742;2023-04-25T11:13:02;2.00;;;1.80;;
31384;SDS011;18016;49.788;8.742;2023-04-25T11:15:27;2.83;;;1.83;;
31384;SDS011;18016;49.788;8.742;2023-04-25T11:17:52;2.50;;;1.77;;
31384;SDS011;18016;49.788;8.742;2023-04-25T11:20:18;3.53;;;1.70;;
31384;SDS011;18016;49.788;8.742;2023-04-25T11:22:44;4.38;;;2.13;;
31384;SDS011;18016;49.788;8.742;2023-04-25T11:25:10;3.63;;;2.03;;
31384;SDS011;18016;49.788;8.742;2023-04-25T11:27:48;3.35;;;2.15;;
31384;SDS011;18016;49.788;8.742;2023-04-25T11:30:15;3.80;;;2.22;;
31384;SDS011;18016;49.788;8.742;2023-04-25T11:32:41;2.85;;;2.22;;
31384;SDS011;18016;49.788;8.742;2023-04-25T11:35:07;27.00;;;8.55;;
31384;SDS011;18016;49.788;8.742;2023-04-25T11:37:32;10.35;;;4.80;;
31384;SDS011;18016;49.788;8.742;2023-04-25T11:39:58;3.97;;;2.20;;
31384;SDS011;18016;49.788;8.742;2023-04-25T11:42:23;4.17;;;2.87;;
31384;SDS011;18016;49.788;8.742;2023-04-25T11:44:48;3.30;;;2.20;;
31384;SDS011;18016;49.788;8.742;2023-04-25T11:47:13;5.47;;;3.33;;
31384;SDS011;18016;49.788;8.742;2023-04-25T11:49:38;5.67;;;2.20;;
31384;SDS011;18016;49.788;8.742;2023-04-25T11:52:05;2.23;;;1.83;;
31384;SDS011;18016;49.788;8.742;2023-04-25T11:54:31;2.55;;;2.35;;
31384;SDS011;18016;49.788;8.742;2023-04-25T11:56:56;3.07;;;1.83;;
31384;SDS011;18016;49.788;8.742;2023-04-25T11:59:24;2.92;;;2.08;;
31384;SDS011;18016;49.788;8.742;2023-04-25T12:01:50;3.65;;;2.45;;
31384;SDS011;18016;49.788;8.742;2023-04-25T12:06:41;2.97;;;2.30;;
31384;SDS011;18016;49.788;8.742;2023-04-25T12:09:07;4.65;;;2.30;;
31384;SDS011;18016;49.788;8.742;2023-04-25T12:11:40;2.22;;;2.03;;
31384;SDS011;18016;49.788;8.742;2023-04-25T12:14:05;2.38;;;1.95;;
31384;SDS011;18016;49.788;8.742;2023-04-25T12:16:39;2.60;;;2.40;;
31384;SDS011;18016;49.788;8.742;2023-04-25T12:19:05;2.95;;;2.58;;
31384;SDS011;18016;49.788;8.742;2023-04-25T12:21:30;3.10;;;2.10;;
31384;SDS011;18016;49.788;8.742;2023-04-25T12:24:07;4.35;;;2.63;;
31384;SDS011;18016;49.788;8.742;2023-04-25T12:29:18;5.30;;;2.92;;
31384;SDS011;18016;49.788;8.742;2023-04-25T12:31:43;3.92;;;2.72;;
31384;SDS011;18016;49.788;8.742;2023-04-25T12:34:09;3.83;;;2.33;;
31384;SDS011;18016;49.788;8.742;2023-04-25T12:36:34;5.13;;;2.35;;
31384;SDS011;18016;49.788;8.742;2023-04-25T12:39:00;3.13;;;2.53;;
31384;SDS011;18016;49.788;8.742;2023-04-25T12:41:29;3.03;;;2.15;;
31384;SDS011;18016;49.788;8.742;2023-04-25T12:43:54;2.50;;;2.05;;
31384;SDS011;18016;49.788;8.742;2023-04-25T12:46:19;3.03;;;2.45;;
31384;SDS011;18016;49.788;8.742;2023-04-25T12:48:45;3.25;;;2.50;;
31384;SDS011;18016;49.788;8.742;2023-04-25T12:51:10;4.13;;;2.10;;
31384;SDS011;18016;49.788;8.742;2023-04-25T12:53:35;2.70;;;2.30;;
31384;SDS011;18016;49.788;8.742;2023-04-25T12:56:02;3.50;;;2.28;;
31384;SDS011;18016;49.788;8.742;2023-04-25T12:58:27;2.58;;;2.30;;
31384;SDS011;18016;49.788;8.742;2023-04-25T13:00:53;3.92;;;2.33;;
31384;SDS011;18016;49.788;8.742;2023-04-25T13:03:18;3.00;;;2.70;;
31384;SDS011;18016;49.788;8.742;2023-04-25T13:05:43;2.45;;;2.03;;
31384;SDS011;18016;49.788;8.742;2023-04-25T13:08:09;4.45;;;1.65;;
31384;SDS011;18016;49.788;8.742;2023-04-25T13:10:34;3.50;;;1.83;;
31384;SDS011;18016;49.788;8.742;2023-04-25T13:13:00;1.70;;;1.60;;
31384;SDS011;18016;49.788;8.742;2023-04-25T13:15:26;2.50;;;2.10;;
31384;SDS011;18016;49.788;8.742;2023-04-25T13:17:51;4.53;;;2.20;;
31384;SDS011;18016;49.788;8.742;2023-04-25T13:20:16;3.00;;;2.10;;
31384;SDS011;18016;49.788;8.742;2023-04-25T13:22:43;3.00;;;1.70;;
31384;SDS011;18016;49.788;8.742;2023-04-25T13:25:10;4.80;;;2.85;;
31384;SDS011;18016;49.788;8.742;2023-04-25T13:27:36;2.97;;;1.60;;
31384;SDS011;18016;49.788;8.742;2023-04-25T13:30:01;2.72;;;2.50;;
31384;SDS011;18016;49.788;8.742;2023-04-25T13:32:31;3.85;;;2.90;;
31384;SDS011;18016;49.788;8.742;2023-04-25T13:34:57;3.87;;;2.73;;
31384;SDS011;18016;49.788;8.742;2023-04-25T13:37:22;3.10;;;2.80;;
31384;SDS011;18016;49.788;8.742;2023-04-25T13:39:49;4.13;;;2.33;;
31384;SDS011;18016;49.788;8.742;2023-04-25T13:42:14;2.67;;;2.10;;
31384;SDS011;18016;49.788;8.742;2023-04-25T13:44:40;4.05;;;2.35;;
31384;SDS011;18016;49.788;8.742;2023-04-25T13:47:05;2.10;;;1.65;;
31384;SDS011;18016;49.788;8.742;2023-04-25T13:49:31;4.55;;;1.90;;
31384;SDS011;18016;49.788;8.742;2023-04-25T13:51:56;2.27;;;1.63;;
31384;SDS011;18016;49.788;8.742;2023-04-25T13:54:21;2.57;;;1.93;;
31384;SDS011;18016;49.788;8.742;2023-04-25T13:56:47;2.60;;;1.38;;
31384;SDS011;18016;49.788;8.742;2023-04-25T13:59:13;3.42;;;1.52;;
31384;SDS011;18016;49.788;8.742;2023-04-25T14:01:38;3.63;;;1.90;;
31384;SDS011;18016;49.788;8.742;2023-04-25T14:04:04;1.95;;;1.52;;
31384;SDS011;18016;49.788;8.742;2023-04-25T14:06:29;3.67;;;1.77;;
31384;SDS011;18016;49.788;8.742;2023-04-25T14:08:55;3.93;;;2.07;;
31384;SDS011;18016;49.788;8.742;2023-04-25T14:11:21;2.28;;;1.90;;
31384;SDS011;18016;49.788;8.742;2023-04-25T14:13:46;2.63;;;2.10;;
31384;SDS011;18016;49.788;8.742;2023-04-25T14:16:12;2.60;;;2.00;;
31384;SDS011;18016;49.788;8.742;2023-04-25T14:18:37;2.00;;;1.80;;
31384;SDS011;18016;49.788;8.742;2023-04-25T14:21:02;2.40;;;2.20;;
31384;SDS011;18016;49.788;8.742;2023-04-25T14:23:27;3.43;;;1.87;;
31384;SDS011;18016;49.788;8.742;2023-04-25T14:25:53;4.80;;;2.10;;
31384;SDS011;18016;49.788;8.742;2023-04-25T14:28:18;1.73;;;1.40;;
31384;SDS011;18016;49.788;8.742;2023-04-25T14:30:44;1.38;;;1.27;;
31384;SDS011;18016;49.788;8.742;2023-04-25T14:33:10;1.52;;;1.38;;
31384;SDS011;18016;49.788;8.742;2023-04-25T14:35:35;1.50;;;1.33;;
31384;SDS011;18016;49.788;8.742;2023-04-25T14:38:00;1.30;;;1.20;;
31384;SDS011;18016;49.788;8.742;2023-04-25T14:40:25;1.40;;;1.30;;
31384;SDS011;18016;49.788;8.742;2023-04-25T14:42:51;2.67;;;1.20;;
31384;SDS011;18016;49.788;8.742;2023-04-25T14:45:16;2.38;;;1.20;;
31384;SDS011;18016;49.788;8.742;2023-04-25T14:47:42;1.67;;;1.42;;
31384;SDS011;18016;49.788;8.742;2023-04-25T14:50:07;2.10;;;1.30;;